<?xml version="1.0" encoding="UTF-8" standalone="no" ?><gpx xmlns="http://www.topografix.com/GPX/1/1" xmlns:gpxx="http://www.garmin.com/xmlschemas/GpxExtensions/v3" xmlns:wptx1="http://www.garmin.com/xmlschemas/WaypointExtension/v1" xmlns:gpxtpx="http://www.garmin.com/xmlschemas/TrackPointExtension/v1" creator="GuideVTT.com" version="1.1" xmlns:xsi="http://www.w3.org/2001/XMLSchema-instance" xsi:schemaLocation="http://www.topografix.com/GPX/1/1 http://www.topografix.com/GPX/1/1/gpx.xsd http://www.garmin.com/xmlschemas/GpxExtensions/v3 http://www8.garmin.com/xmlschemas/GpxExtensionsv3.xsd http://www.garmin.com/xmlschemas/WaypointExtension/v1 http://www8.garmin.com/xmlschemas/WaypointExtensionv1.xsd http://www.garmin.com/xmlschemas/TrackPointExtension/v1 http://www.garmin.com/xmlschemas/TrackPointExtensionv1.xsd">
<metadata><link href="http://www.garmin.com"><text>Garmin International</text></link><time>2013-06-22T15:13:50Z</time></metadata>
<trk><name>viville_20080819a.gpx</name><extensions><gpxx:TrackExtension><gpxx:DisplayColor>Cyan</gpxx:DisplayColor></gpxx:TrackExtension></extensions><trkseg>
<trkpt lat="49.67784280" lon="5.79679150"><ele>398.6037596616</ele><time>2008-08-19T15:44:15Z</time></trkpt>
<trkpt lat="49.67781940" lon="5.79679890"><ele>398.6037596616</ele><time>2008-08-19T15:44:16Z</time></trkpt>
<trkpt lat="49.67756220" lon="5.79673830"><ele>400.0458983064</ele><time>2008-08-19T15:44:26Z</time></trkpt>
<trkpt lat="49.67751680" lon="5.79662320"><ele>398.6037596616</ele><time>2008-08-19T15:44:28Z</time></trkpt>
<trkpt lat="49.67695820" lon="5.79548570"><ele>396.2005616232</ele><time>2008-08-19T15:44:43Z</time></trkpt>
<trkpt lat="49.67635560" lon="5.79394810"><ele>394.7585448984</ele><time>2008-08-19T15:45:01Z</time></trkpt>
<trkpt lat="49.67562780" lon="5.79265470"><ele>395.7198487416</ele><time>2008-08-19T15:45:20Z</time></trkpt>
<trkpt lat="49.67520680" lon="5.79212810"><ele>396.68115228</ele><time>2008-08-19T15:45:30Z</time></trkpt>
<trkpt lat="49.67512040" lon="5.79203370"><ele>398.1231690048</ele><time>2008-08-19T15:45:33Z</time></trkpt>
<trkpt lat="49.67525960" lon="5.79188450"><ele>397.6424561232</ele><time>2008-08-19T15:45:36Z</time></trkpt>
<trkpt lat="49.67591420" lon="5.79073130"><ele>396.68115228</ele><time>2008-08-19T15:45:53Z</time></trkpt>
<trkpt lat="49.67633120" lon="5.78956400"><ele>396.68115228</ele><time>2008-08-19T15:46:08Z</time></trkpt>
<trkpt lat="49.67687800" lon="5.78762870"><ele>397.6424561232</ele><time>2008-08-19T15:46:32Z</time></trkpt>
<trkpt lat="49.67707290" lon="5.78654590"><ele>401.0070802296</ele><time>2008-08-19T15:46:46Z</time></trkpt>
<trkpt lat="49.67745190" lon="5.78549580"><ele>402.4490966496</ele><time>2008-08-19T15:47:01Z</time></trkpt>
<trkpt lat="49.67772960" lon="5.78498840"><ele>405.3330078744</ele><time>2008-08-19T15:47:15Z</time></trkpt>
<trkpt lat="49.67796930" lon="5.78445520"><ele>407.255615256</ele><time>2008-08-19T15:47:23Z</time></trkpt>
<trkpt lat="49.67801330" lon="5.78389730"><ele>403.8911133744</ele><time>2008-08-19T15:47:33Z</time></trkpt>
<trkpt lat="49.67801810" lon="5.78383640"><ele>403.4104004928</ele><time>2008-08-19T15:47:34Z</time></trkpt>
<trkpt lat="49.67804160" lon="5.78353950"><ele>400.526489268</ele><time>2008-08-19T15:47:40Z</time></trkpt>
<trkpt lat="49.67807150" lon="5.78316060"><ele>396.68115228</ele><time>2008-08-19T15:47:47Z</time></trkpt>
<trkpt lat="49.67814920" lon="5.78296510"><ele>395.23913586</ele><time>2008-08-19T15:47:50Z</time></trkpt>
<trkpt lat="49.67830390" lon="5.78260400"><ele>391.8745117536</ele><time>2008-08-19T15:47:56Z</time></trkpt>
<trkpt lat="49.67839650" lon="5.78237710"><ele>389.951904372</ele><time>2008-08-19T15:48:00Z</time></trkpt>
<trkpt lat="49.67848010" lon="5.78216790"><ele>388.0292969904</ele><time>2008-08-19T15:48:05Z</time></trkpt>
<trkpt lat="49.67851950" lon="5.78206950"><ele>386.5874024904</ele><time>2008-08-19T15:48:07Z</time></trkpt>
<trkpt lat="49.67880370" lon="5.78146680"><ele>384.1840819224</ele><time>2008-08-19T15:48:17Z</time></trkpt>
<trkpt lat="49.67879140" lon="5.78130250"><ele>382.7420655024</ele><time>2008-08-19T15:48:21Z</time></trkpt>
<trkpt lat="49.67888480" lon="5.78070990"><ele>380.8194581208</ele><time>2008-08-19T15:48:30Z</time></trkpt>
<trkpt lat="49.67891080" lon="5.78066190"><ele>380.3387452392</ele><time>2008-08-19T15:48:31Z</time></trkpt>
<trkpt lat="49.67899340" lon="5.78050930"><ele>379.377441396</ele><time>2008-08-19T15:48:34Z</time></trkpt>
<trkpt lat="49.67908880" lon="5.78033330"><ele>377.4548340144</ele><time>2008-08-19T15:48:37Z</time></trkpt>
<trkpt lat="49.67933450" lon="5.77987980"><ele>376.0128172896</ele><time>2008-08-19T15:48:44Z</time></trkpt>
<trkpt lat="49.67946490" lon="5.77961400"><ele>375.532104408</ele><time>2008-08-19T15:48:49Z</time></trkpt>
<trkpt lat="49.67953570" lon="5.77945480"><ele>374.5708008696</ele><time>2008-08-19T15:48:52Z</time></trkpt>
<trkpt lat="49.67958060" lon="5.77935380"><ele>374.5708008696</ele><time>2008-08-19T15:48:54Z</time></trkpt>
<trkpt lat="49.67982400" lon="5.77809140"><ele>372.648193488</ele><time>2008-08-19T15:49:10Z</time></trkpt>
<trkpt lat="49.67992150" lon="5.77653110"><ele>372.1674806064</ele><time>2008-08-19T15:49:27Z</time></trkpt>
<trkpt lat="49.67997860" lon="5.77617260"><ele>372.1674806064</ele><time>2008-08-19T15:49:31Z</time></trkpt>
<trkpt lat="49.68002630" lon="5.77600560"><ele>372.648193488</ele><time>2008-08-19T15:49:33Z</time></trkpt>
<trkpt lat="49.68001540" lon="5.77555420"><ele>372.648193488</ele><time>2008-08-19T15:49:39Z</time></trkpt>
<trkpt lat="49.68020840" lon="5.77481100"><ele>371.2062986832</ele><time>2008-08-19T15:49:48Z</time></trkpt>
<trkpt lat="49.68019770" lon="5.77471460"><ele>371.2062986832</ele><time>2008-08-19T15:49:49Z</time></trkpt>
<trkpt lat="49.67990120" lon="5.77261210"><ele>372.648193488</ele><time>2008-08-19T15:50:12Z</time></trkpt>
<trkpt lat="49.67977890" lon="5.77187870"><ele>370.7255858016</ele><time>2008-08-19T15:50:20Z</time></trkpt>
<trkpt lat="49.67993650" lon="5.77158250"><ele>370.7255858016</ele><time>2008-08-19T15:50:26Z</time></trkpt>
<trkpt lat="49.68028380" lon="5.77139540"><ele>373.1289063696</ele><time>2008-08-19T15:50:32Z</time></trkpt>
<trkpt lat="49.68141990" lon="5.77078380"><ele>370.24487292</ele><time>2008-08-19T15:50:50Z</time></trkpt>
<trkpt lat="49.68257340" lon="5.77067300"><ele>366.8802491184</ele><time>2008-08-19T15:51:06Z</time></trkpt>
<trkpt lat="49.68290360" lon="5.77069370"><ele>364.9576417368</ele><time>2008-08-19T15:51:10Z</time></trkpt>
<trkpt lat="49.68387760" lon="5.77064390"><ele>361.5931395504</ele><time>2008-08-19T15:51:21Z</time></trkpt>
<trkpt lat="49.68483800" lon="5.77015790"><ele>360.1511231304</ele><time>2008-08-19T15:51:33Z</time></trkpt>
<trkpt lat="49.68510150" lon="5.77001580"><ele>358.7089844856</ele><time>2008-08-19T15:51:36Z</time></trkpt>
<trkpt lat="49.68611690" lon="5.76928730"><ele>357.7478028672</ele><time>2008-08-19T15:51:51Z</time></trkpt>
<trkpt lat="49.68629010" lon="5.76916110"><ele>358.228393524</ele><time>2008-08-19T15:51:54Z</time></trkpt>
<trkpt lat="49.68660180" lon="5.76899110"><ele>359.1896973672</ele><time>2008-08-19T15:52:00Z</time></trkpt>
<trkpt lat="49.68683780" lon="5.76894620"><ele>359.1896973672</ele><time>2008-08-19T15:52:03Z</time></trkpt>
<trkpt lat="49.68695450" lon="5.76895290"><ele>359.1896973672</ele><time>2008-08-19T15:52:09Z</time></trkpt>
<trkpt lat="49.68714330" lon="5.76896400"><ele>358.7089844856</ele><time>2008-08-19T15:52:14Z</time></trkpt>
<trkpt lat="49.68778270" lon="5.76914180"><ele>362.073730512</ele><time>2008-08-19T15:52:30Z</time></trkpt>
<trkpt lat="49.68813760" lon="5.76930320"><ele>361.1124266688</ele><time>2008-08-19T15:52:36Z</time></trkpt>
<trkpt lat="49.68863950" lon="5.76941010"><ele>358.7089844856</ele><time>2008-08-19T15:52:44Z</time></trkpt>
<trkpt lat="49.68878480" lon="5.76941010"><ele>358.7089844856</ele><time>2008-08-19T15:52:46Z</time></trkpt>
<trkpt lat="49.68902490" lon="5.76932770"><ele>356.3057861424</ele><time>2008-08-19T15:52:50Z</time></trkpt>
<trkpt lat="49.68943140" lon="5.76912900"><ele>352.4605713792</ele><time>2008-08-19T15:52:55Z</time></trkpt>
<trkpt lat="49.68952640" lon="5.76910940"><ele>352.4605713792</ele><time>2008-08-19T15:52:56Z</time></trkpt>
<trkpt lat="49.68993130" lon="5.76902560"><ele>349.095825048</ele><time>2008-08-19T15:53:00Z</time></trkpt>
<trkpt lat="49.69041800" lon="5.76892470"><ele>349.095825048</ele><time>2008-08-19T15:53:05Z</time></trkpt>
<trkpt lat="49.69087210" lon="5.76880890"><ele>349.5765382344</ele><time>2008-08-19T15:53:15Z</time></trkpt>
<trkpt lat="49.69089430" lon="5.76880270"><ele>349.095825048</ele><time>2008-08-19T15:53:28Z</time></trkpt>
<trkpt lat="49.69089430" lon="5.76880270"><ele>351.499145616</ele><time>2008-08-19T15:55:30Z</time></trkpt>
<trkpt lat="49.69114830" lon="5.76873200"><ele>349.095825048</ele><time>2008-08-19T15:55:40Z</time></trkpt>
<trkpt lat="49.69164660" lon="5.76854510"><ele>346.6926270096</ele><time>2008-08-19T15:55:48Z</time></trkpt>
<trkpt lat="49.69205750" lon="5.76836710"><ele>345.2506102848</ele><time>2008-08-19T15:55:54Z</time></trkpt>
<trkpt lat="49.69284440" lon="5.76788350"><ele>343.3278809832</ele><time>2008-08-19T15:56:05Z</time></trkpt>
<trkpt lat="49.69312410" lon="5.76781200"><ele>344.2894286664</ele><time>2008-08-19T15:56:13Z</time></trkpt>
<trkpt lat="49.69311440" lon="5.76759420"><ele>343.8085938648</ele><time>2008-08-19T15:56:16Z</time></trkpt>
<trkpt lat="49.69326920" lon="5.76747890"><ele>343.3278809832</ele><time>2008-08-19T15:56:18Z</time></trkpt>
<trkpt lat="49.69359850" lon="5.76747890"><ele>345.7313231664</ele><time>2008-08-19T15:56:25Z</time></trkpt>
<trkpt lat="49.69412070" lon="5.76747890"><ele>349.095825048</ele><time>2008-08-19T15:56:36Z</time></trkpt>
<trkpt lat="49.69425040" lon="5.76747890"><ele>349.095825048</ele><time>2008-08-19T15:56:39Z</time></trkpt>
<trkpt lat="49.69437840" lon="5.76747890"><ele>350.5378417728</ele><time>2008-08-19T15:56:42Z</time></trkpt>
<trkpt lat="49.69480580" lon="5.76747890"><ele>354.3831787608</ele><time>2008-08-19T15:56:53Z</time></trkpt>
<trkpt lat="49.69529960" lon="5.76747890"><ele>358.228393524</ele><time>2008-08-19T15:57:05Z</time></trkpt>
<trkpt lat="49.69580670" lon="5.76747790"><ele>362.073730512</ele><time>2008-08-19T15:57:18Z</time></trkpt>
<trkpt lat="49.69590190" lon="5.76746840"><ele>362.5543211688</ele><time>2008-08-19T15:57:20Z</time></trkpt>
<trkpt lat="49.69622750" lon="5.76720030"><ele>365.4383546184</ele><time>2008-08-19T15:57:32Z</time></trkpt>
<trkpt lat="49.69664920" lon="5.76695220"><ele>368.80297842</ele><time>2008-08-19T15:57:45Z</time></trkpt>
<trkpt lat="49.69706590" lon="5.76676710"><ele>370.24487292</ele><time>2008-08-19T15:58:00Z</time></trkpt>
<trkpt lat="49.69738240" lon="5.76655920"><ele>372.1674806064</ele><time>2008-08-19T15:58:11Z</time></trkpt>
<trkpt lat="49.69748230" lon="5.76684460"><ele>373.1289063696</ele><time>2008-08-19T15:58:17Z</time></trkpt>
<trkpt lat="49.69751150" lon="5.76783680"><ele>373.1289063696</ele><time>2008-08-19T15:58:31Z</time></trkpt>
<trkpt lat="49.69778200" lon="5.76839830"><ele>373.1289063696</ele><time>2008-08-19T15:58:41Z</time></trkpt>
<trkpt lat="49.69792420" lon="5.76865810"><ele>374.5708008696</ele><time>2008-08-19T15:58:45Z</time></trkpt>
<trkpt lat="49.69816490" lon="5.76921570"><ele>375.532104408</ele><time>2008-08-19T15:58:53Z</time></trkpt>
<trkpt lat="49.69826030" lon="5.76933500"><ele>376.0128172896</ele><time>2008-08-19T15:58:56Z</time></trkpt>
<trkpt lat="49.69886060" lon="5.77001340"><ele>376.4935301712</ele><time>2008-08-19T15:59:11Z</time></trkpt>
<trkpt lat="49.69902810" lon="5.77019280"><ele>377.9354246712</ele><time>2008-08-19T15:59:15Z</time></trkpt>
<trkpt lat="49.69991720" lon="5.77083020"><ele>378.4161375528</ele><time>2008-08-19T15:59:32Z</time></trkpt>
<trkpt lat="49.70023170" lon="5.77105300"><ele>375.0515137512</ele><time>2008-08-19T15:59:37Z</time></trkpt>
<trkpt lat="49.70029740" lon="5.77109950"><ele>375.532104408</ele><time>2008-08-19T15:59:38Z</time></trkpt>
<trkpt lat="49.70062750" lon="5.77126840"><ele>373.6094970264</ele><time>2008-08-19T15:59:43Z</time></trkpt>
<trkpt lat="49.70166300" lon="5.77149150"><ele>373.1289063696</ele><time>2008-08-19T15:59:57Z</time></trkpt>
<trkpt lat="49.70251140" lon="5.77179790"><ele>376.4935301712</ele><time>2008-08-19T16:00:12Z</time></trkpt>
<trkpt lat="49.70282230" lon="5.77195940"><ele>378.4161375528</ele><time>2008-08-19T16:00:20Z</time></trkpt>
<trkpt lat="49.70305790" lon="5.77243060"><ele>377.4548340144</ele><time>2008-08-19T16:00:30Z</time></trkpt>
<trkpt lat="49.70312400" lon="5.77256270"><ele>376.4935301712</ele><time>2008-08-19T16:00:32Z</time></trkpt>
<trkpt lat="49.70341850" lon="5.77315190"><ele>373.1289063696</ele><time>2008-08-19T16:00:40Z</time></trkpt>
<trkpt lat="49.70364410" lon="5.77360290"><ele>371.6868896448</ele><time>2008-08-19T16:00:45Z</time></trkpt>
<trkpt lat="49.70384990" lon="5.77394920"><ele>370.24487292</ele><time>2008-08-19T16:00:49Z</time></trkpt>
<trkpt lat="49.70453290" lon="5.77492210"><ele>369.7642822632</ele><time>2008-08-19T16:01:04Z</time></trkpt>
<trkpt lat="49.70479850" lon="5.77530040"><ele>371.6868896448</ele><time>2008-08-19T16:01:10Z</time></trkpt>
<trkpt lat="49.70495670" lon="5.77552570"><ele>373.6094970264</ele><time>2008-08-19T16:01:14Z</time></trkpt>
<trkpt lat="49.70518960" lon="5.77604010"><ele>375.532104408</ele><time>2008-08-19T16:01:25Z</time></trkpt>
<trkpt lat="49.70514330" lon="5.77646480"><ele>375.0515137512</ele><time>2008-08-19T16:01:31Z</time></trkpt>
<trkpt lat="49.70503100" lon="5.77666710"><ele>373.1289063696</ele><time>2008-08-19T16:01:34Z</time></trkpt>
<trkpt lat="49.70497040" lon="5.77720740"><ele>370.7255858016</ele><time>2008-08-19T16:01:41Z</time></trkpt>
<trkpt lat="49.70498560" lon="5.77738210"><ele>370.7255858016</ele><time>2008-08-19T16:01:43Z</time></trkpt>
<trkpt lat="49.70501810" lon="5.77775700"><ele>368.80297842</ele><time>2008-08-19T16:01:47Z</time></trkpt>
<trkpt lat="49.70500680" lon="5.77788060"><ele>368.3222655384</ele><time>2008-08-19T16:01:48Z</time></trkpt>
<trkpt lat="49.70495320" lon="5.77806850"><ele>367.360962</ele><time>2008-08-19T16:01:50Z</time></trkpt>
<trkpt lat="49.70475730" lon="5.77855550"><ele>363.515746932</ele><time>2008-08-19T16:01:55Z</time></trkpt>
<trkpt lat="49.70471800" lon="5.77866280"><ele>363.9963378936</ele><time>2008-08-19T16:01:56Z</time></trkpt>
<trkpt lat="49.70461080" lon="5.77918080"><ele>360.6317137872</ele><time>2008-08-19T16:02:01Z</time></trkpt>
<trkpt lat="49.70449380" lon="5.77974660"><ele>359.1896973672</ele><time>2008-08-19T16:02:07Z</time></trkpt>
<trkpt lat="49.70446590" lon="5.77988860"><ele>359.1896973672</ele><time>2008-08-19T16:02:09Z</time></trkpt>
<trkpt lat="49.70469670" lon="5.78028990"><ele>355.8251951808</ele><time>2008-08-19T16:02:17Z</time></trkpt>
<trkpt lat="49.70541750" lon="5.78076120"><ele>356.786377104</ele><time>2008-08-19T16:02:30Z</time></trkpt>
<trkpt lat="49.70650360" lon="5.78157590"><ele>356.786377104</ele><time>2008-08-19T16:02:52Z</time></trkpt>
<trkpt lat="49.70694800" lon="5.78202030"><ele>354.8637694176</ele><time>2008-08-19T16:03:01Z</time></trkpt>
<trkpt lat="49.70731810" lon="5.78286850"><ele>354.3831787608</ele><time>2008-08-19T16:03:13Z</time></trkpt>
<trkpt lat="49.70743210" lon="5.78357730"><ele>354.8637694176</ele><time>2008-08-19T16:03:21Z</time></trkpt>
<trkpt lat="49.70759530" lon="5.78366960"><ele>354.8637694176</ele><time>2008-08-19T16:03:25Z</time></trkpt>
<trkpt lat="49.70798520" lon="5.78383920"><ele>354.8637694176</ele><time>2008-08-19T16:03:31Z</time></trkpt>
<trkpt lat="49.70837710" lon="5.78400970"><ele>355.3444822992</ele><time>2008-08-19T16:03:40Z</time></trkpt>
<trkpt lat="49.70884660" lon="5.78416900"><ele>355.3444822992</ele><time>2008-08-19T16:03:49Z</time></trkpt>
<trkpt lat="49.70922810" lon="5.78429100"><ele>355.8251951808</ele><time>2008-08-19T16:03:57Z</time></trkpt>
<trkpt lat="49.70961630" lon="5.78445670"><ele>357.2670899856</ele><time>2008-08-19T16:04:09Z</time></trkpt>
<trkpt lat="49.70966500" lon="5.78449580"><ele>356.786377104</ele><time>2008-08-19T16:04:11Z</time></trkpt>
<trkpt lat="49.70978110" lon="5.78462030"><ele>358.228393524</ele><time>2008-08-19T16:04:17Z</time></trkpt>
<trkpt lat="49.70987800" lon="5.78478830"><ele>358.7089844856</ele><time>2008-08-19T16:04:23Z</time></trkpt>
<trkpt lat="49.70991490" lon="5.78489890"><ele>359.1896973672</ele><time>2008-08-19T16:04:31Z</time></trkpt>
<trkpt lat="49.70993820" lon="5.78500080"><ele>359.6704102488</ele><time>2008-08-19T16:04:35Z</time></trkpt>
<trkpt lat="49.70998830" lon="5.78522230"><ele>362.073730512</ele><time>2008-08-19T16:04:43Z</time></trkpt>
<trkpt lat="49.71006810" lon="5.78557560"><ele>365.9189452752</ele><time>2008-08-19T16:04:54Z</time></trkpt>
<trkpt lat="49.71014290" lon="5.78590680"><ele>368.3222655384</ele><time>2008-08-19T16:05:06Z</time></trkpt>
<trkpt lat="49.71014950" lon="5.78593600"><ele>368.80297842</ele><time>2008-08-19T16:05:07Z</time></trkpt>
<trkpt lat="49.71019880" lon="5.78615420"><ele>370.24487292</ele><time>2008-08-19T16:05:21Z</time></trkpt>
<trkpt lat="49.71020790" lon="5.78626460"><ele>370.24487292</ele><time>2008-08-19T16:05:28Z</time></trkpt>
<trkpt lat="49.71015320" lon="5.78646500"><ele>371.6868896448</ele><time>2008-08-19T16:05:36Z</time></trkpt>
<trkpt lat="49.71009390" lon="5.78668240"><ele>375.0515137512</ele><time>2008-08-19T16:05:44Z</time></trkpt>
<trkpt lat="49.71008780" lon="5.78670500"><ele>375.532104408</ele><time>2008-08-19T16:05:46Z</time></trkpt>
<trkpt lat="49.70986580" lon="5.78673270"><ele>377.4548340144</ele><time>2008-08-19T16:05:57Z</time></trkpt>
<trkpt lat="49.70960610" lon="5.78686650"><ele>379.377441396</ele><time>2008-08-19T16:06:08Z</time></trkpt>
<trkpt lat="49.70957100" lon="5.78689650"><ele>379.8580323576</ele><time>2008-08-19T16:06:10Z</time></trkpt>
<trkpt lat="49.70945130" lon="5.78699910"><ele>379.8580323576</ele><time>2008-08-19T16:06:15Z</time></trkpt>
<trkpt lat="49.70908160" lon="5.78731490"><ele>381.7806397392</ele><time>2008-08-19T16:06:30Z</time></trkpt>
<trkpt lat="49.70900120" lon="5.78738230"><ele>383.7032471208</ele><time>2008-08-19T16:06:33Z</time></trkpt>
<trkpt lat="49.70849920" lon="5.78780340"><ele>387.0679931472</ele><time>2008-08-19T16:06:52Z</time></trkpt>
<trkpt lat="49.70812520" lon="5.78811690"><ele>388.9906005288</ele><time>2008-08-19T16:07:07Z</time></trkpt>
<trkpt lat="49.70755670" lon="5.78847770"><ele>389.4711914904</ele><time>2008-08-19T16:07:24Z</time></trkpt>
<trkpt lat="49.70742480" lon="5.78852870"><ele>388.0292969904</ele><time>2008-08-19T16:07:27Z</time></trkpt>
<trkpt lat="49.70630220" lon="5.78896230"><ele>387.0679931472</ele><time>2008-08-19T16:07:49Z</time></trkpt>
<trkpt lat="49.70557180" lon="5.78933300"><ele>386.5874024904</ele><time>2008-08-19T16:08:02Z</time></trkpt>
<trkpt lat="49.70479630" lon="5.78974360"><ele>385.1453857656</ele><time>2008-08-19T16:08:15Z</time></trkpt>
<trkpt lat="49.70364130" lon="5.78974240"><ele>382.2613526208</ele><time>2008-08-19T16:08:31Z</time></trkpt>
<trkpt lat="49.70264760" lon="5.78959690"><ele>378.8968504344</ele><time>2008-08-19T16:08:44Z</time></trkpt>
<trkpt lat="49.70179210" lon="5.79014410"><ele>376.9742430528</ele><time>2008-08-19T16:08:56Z</time></trkpt>
<trkpt lat="49.70123890" lon="5.79068420"><ele>373.6094970264</ele><time>2008-08-19T16:09:04Z</time></trkpt>
<trkpt lat="49.70095380" lon="5.79109590"><ele>369.7642822632</ele><time>2008-08-19T16:09:08Z</time></trkpt>
<trkpt lat="49.70087970" lon="5.79121130"><ele>369.7642822632</ele><time>2008-08-19T16:09:09Z</time></trkpt>
<trkpt lat="49.70060000" lon="5.79170930"><ele>365.9189452752</ele><time>2008-08-19T16:09:13Z</time></trkpt>
<trkpt lat="49.70038430" lon="5.79209370"><ele>363.515746932</ele><time>2008-08-19T16:09:16Z</time></trkpt>
<trkpt lat="49.69963110" lon="5.79343530"><ele>363.0350340504</ele><time>2008-08-19T16:09:28Z</time></trkpt>
<trkpt lat="49.69930790" lon="5.79375650"><ele>361.5931395504</ele><time>2008-08-19T16:09:33Z</time></trkpt>
<trkpt lat="49.69916430" lon="5.79384820"><ele>361.1124266688</ele><time>2008-08-19T16:09:35Z</time></trkpt>
<trkpt lat="49.69831720" lon="5.79438940"><ele>359.1896973672</ele><time>2008-08-19T16:09:47Z</time></trkpt>
<trkpt lat="49.69805120" lon="5.79455930"><ele>358.228393524</ele><time>2008-08-19T16:09:51Z</time></trkpt>
<trkpt lat="49.69785690" lon="5.79490180"><ele>360.6317137872</ele><time>2008-08-19T16:09:57Z</time></trkpt>
<trkpt lat="49.69765880" lon="5.79501170"><ele>360.6317137872</ele><time>2008-08-19T16:10:00Z</time></trkpt>
<trkpt lat="49.69714130" lon="5.79544550"><ele>358.228393524</ele><time>2008-08-19T16:10:09Z</time></trkpt>
<trkpt lat="49.69647310" lon="5.79675350"><ele>355.3444822992</ele><time>2008-08-19T16:10:22Z</time></trkpt>
<trkpt lat="49.69559550" lon="5.79814360"><ele>356.3057861424</ele><time>2008-08-19T16:10:38Z</time></trkpt>
<trkpt lat="49.69520920" lon="5.79922070"><ele>357.7478028672</ele><time>2008-08-19T16:10:50Z</time></trkpt>
<trkpt lat="49.69511030" lon="5.80008100"><ele>357.7478028672</ele><time>2008-08-19T16:11:00Z</time></trkpt>
<trkpt lat="49.69476480" lon="5.80053700"><ele>358.7089844856</ele><time>2008-08-19T16:11:08Z</time></trkpt>
<trkpt lat="49.69443140" lon="5.80093330"><ele>358.228393524</ele><time>2008-08-19T16:11:16Z</time></trkpt>
<trkpt lat="49.69423670" lon="5.80115720"><ele>357.2670899856</ele><time>2008-08-19T16:11:20Z</time></trkpt>
<trkpt lat="49.69356390" lon="5.80189240"><ele>360.6317137872</ele><time>2008-08-19T16:11:34Z</time></trkpt>
<trkpt lat="49.69351890" lon="5.80193610"><ele>360.6317137872</ele><time>2008-08-19T16:11:35Z</time></trkpt>
<trkpt lat="49.69317290" lon="5.80227260"><ele>363.9963378936</ele><time>2008-08-19T16:11:44Z</time></trkpt>
<trkpt lat="49.69267940" lon="5.80275230"><ele>367.360962</ele><time>2008-08-19T16:11:59Z</time></trkpt>
<trkpt lat="49.69226240" lon="5.80315780"><ele>370.24487292</ele><time>2008-08-19T16:12:14Z</time></trkpt>
<trkpt lat="49.69209890" lon="5.80332580"><ele>371.6868896448</ele><time>2008-08-19T16:12:20Z</time></trkpt>
<trkpt lat="49.69152580" lon="5.80392090"><ele>374.5708008696</ele><time>2008-08-19T16:12:40Z</time></trkpt>
<trkpt lat="49.69092430" lon="5.80454550"><ele>376.4935301712</ele><time>2008-08-19T16:13:00Z</time></trkpt>
<trkpt lat="49.69029420" lon="5.80520000"><ele>377.4548340144</ele><time>2008-08-19T16:13:20Z</time></trkpt>
<trkpt lat="49.69019320" lon="5.80530480"><ele>377.9354246712</ele><time>2008-08-19T16:13:23Z</time></trkpt>
<trkpt lat="49.69009080" lon="5.80541110"><ele>378.4161375528</ele><time>2008-08-19T16:13:26Z</time></trkpt>
<trkpt lat="49.68943990" lon="5.80654120"><ele>379.8580323576</ele><time>2008-08-19T16:13:48Z</time></trkpt>
<trkpt lat="49.68903090" lon="5.80674970"><ele>379.377441396</ele><time>2008-08-19T16:13:59Z</time></trkpt>
<trkpt lat="49.68898810" lon="5.80675010"><ele>379.8580323576</ele><time>2008-08-19T16:14:00Z</time></trkpt>
<trkpt lat="49.68807780" lon="5.80676010"><ele>381.3000487776</ele><time>2008-08-19T16:14:19Z</time></trkpt>
<trkpt lat="49.68712070" lon="5.80677040"><ele>383.7032471208</ele><time>2008-08-19T16:14:41Z</time></trkpt>
<trkpt lat="49.68603050" lon="5.80678230"><ele>383.7032471208</ele><time>2008-08-19T16:15:04Z</time></trkpt>
<trkpt lat="49.68538400" lon="5.80678930"><ele>384.1840819224</ele><time>2008-08-19T16:15:20Z</time></trkpt>
<trkpt lat="49.68538400" lon="5.80678930"><ele>384.1840819224</ele><time>2008-08-19T16:15:39Z</time></trkpt>
<trkpt lat="49.68538400" lon="5.80678930"><ele>384.1840819224</ele><time>2008-08-19T16:15:43Z</time></trkpt>
<trkpt lat="49.68534620" lon="5.80710640"><ele>384.1840819224</ele><time>2008-08-19T16:15:51Z</time></trkpt>
<trkpt lat="49.68531250" lon="5.80758470"><ele>388.0292969904</ele><time>2008-08-19T16:15:57Z</time></trkpt>
<trkpt lat="49.68530760" lon="5.80765570"><ele>388.0292969904</ele><time>2008-08-19T16:15:58Z</time></trkpt>
<trkpt lat="49.68529750" lon="5.80779820"><ele>388.510009872</ele><time>2008-08-19T16:16:00Z</time></trkpt>
<trkpt lat="49.68528790" lon="5.80793500"><ele>389.4711914904</ele><time>2008-08-19T16:16:02Z</time></trkpt>
<trkpt lat="49.68521890" lon="5.80891450"><ele>392.3553465552</ele><time>2008-08-19T16:16:18Z</time></trkpt>
<trkpt lat="49.68516990" lon="5.80961120"><ele>395.23913586</ele><time>2008-08-19T16:16:32Z</time></trkpt>
<trkpt lat="49.68488250" lon="5.80947440"><ele>397.1617432416</ele><time>2008-08-19T16:16:41Z</time></trkpt>
<trkpt lat="49.68442150" lon="5.80884040"><ele>399.5650635048</ele><time>2008-08-19T16:17:01Z</time></trkpt>
<trkpt lat="49.68389930" lon="5.80811800"><ele>399.0843506232</ele><time>2008-08-19T16:17:20Z</time></trkpt>
<trkpt lat="49.68376780" lon="5.80793920"><ele>398.6037596616</ele><time>2008-08-19T16:17:24Z</time></trkpt>
<trkpt lat="49.68327110" lon="5.80726350"><ele>396.2005616232</ele><time>2008-08-19T16:17:35Z</time></trkpt>
<trkpt lat="49.68316070" lon="5.80711340"><ele>394.7585448984</ele><time>2008-08-19T16:17:37Z</time></trkpt>
<trkpt lat="49.68261440" lon="5.80637560"><ele>391.8745117536</ele><time>2008-08-19T16:17:46Z</time></trkpt>
<trkpt lat="49.68247970" lon="5.80622600"><ele>390.4326172536</ele><time>2008-08-19T16:17:48Z</time></trkpt>
<trkpt lat="49.68210370" lon="5.80600260"><ele>389.4711914904</ele><time>2008-08-19T16:17:53Z</time></trkpt>
<trkpt lat="49.68196670" lon="5.80593820"><ele>390.9132079104</ele><time>2008-08-19T16:17:56Z</time></trkpt>
<trkpt lat="49.68172100" lon="5.80582250"><ele>389.4711914904</ele><time>2008-08-19T16:18:03Z</time></trkpt>
<trkpt lat="49.68167780" lon="5.80580230"><ele>388.9906005288</ele><time>2008-08-19T16:18:08Z</time></trkpt>
<trkpt lat="49.68124440" lon="5.80559430"><ele>388.9906005288</ele><time>2008-08-19T16:18:12Z</time></trkpt>
<trkpt lat="49.68080010" lon="5.80538100"><ele>386.5874024904</ele><time>2008-08-19T16:18:19Z</time></trkpt>
<trkpt lat="49.68072910" lon="5.80534700"><ele>386.5874024904</ele><time>2008-08-19T16:18:20Z</time></trkpt>
<trkpt lat="49.68040130" lon="5.80538910"><ele>384.664794804</ele><time>2008-08-19T16:18:25Z</time></trkpt>
<trkpt lat="49.68004750" lon="5.80552310"><ele>380.8194581208</ele><time>2008-08-19T16:18:30Z</time></trkpt>
<trkpt lat="49.67972920" lon="5.80561850"><ele>378.8968504344</ele><time>2008-08-19T16:18:34Z</time></trkpt>
<trkpt lat="49.67911800" lon="5.80555350"><ele>375.0515137512</ele><time>2008-08-19T16:18:41Z</time></trkpt>
<trkpt lat="49.67903530" lon="5.80543670"><ele>375.0515137512</ele><time>2008-08-19T16:18:42Z</time></trkpt>
<trkpt lat="49.67890420" lon="5.80522680"><ele>374.090087988</ele><time>2008-08-19T16:18:44Z</time></trkpt>
<trkpt lat="49.67863450" lon="5.80478340"><ele>371.6868896448</ele><time>2008-08-19T16:18:48Z</time></trkpt>
<trkpt lat="49.67813310" lon="5.80371700"><ele>370.7255858016</ele><time>2008-08-19T16:18:57Z</time></trkpt>
<trkpt lat="49.67803390" lon="5.80336960"><ele>372.648193488</ele><time>2008-08-19T16:19:00Z</time></trkpt>
<trkpt lat="49.67802240" lon="5.80323330"><ele>372.1674806064</ele><time>2008-08-19T16:19:01Z</time></trkpt>
<trkpt lat="49.67793380" lon="5.80162820"><ele>374.5708008696</ele><time>2008-08-19T16:19:16Z</time></trkpt>
<trkpt lat="49.67788140" lon="5.79984670"><ele>376.4935301712</ele><time>2008-08-19T16:19:34Z</time></trkpt>
<trkpt lat="49.67779460" lon="5.79820330"><ele>378.4161375528</ele><time>2008-08-19T16:19:54Z</time></trkpt>
<trkpt lat="49.67778370" lon="5.79805540"><ele>377.9354246712</ele><time>2008-08-19T16:19:56Z</time></trkpt>
<trkpt lat="49.67753630" lon="5.79703980"><ele>379.377441396</ele><time>2008-08-19T16:20:13Z</time></trkpt>
<trkpt lat="49.67794800" lon="5.79675740"><ele>379.377441396</ele><time>2008-08-19T16:20:23Z</time></trkpt>
<trkpt lat="49.67870890" lon="5.79639810"><ele>376.0128172896</ele><time>2008-08-19T16:20:38Z</time></trkpt>
<trkpt lat="49.67931650" lon="5.79613620"><ele>373.1289063696</ele><time>2008-08-19T16:20:47Z</time></trkpt>
<trkpt lat="49.67948990" lon="5.79609690"><ele>373.1289063696</ele><time>2008-08-19T16:20:52Z</time></trkpt>
<trkpt lat="49.67908900" lon="5.79635990"><ele>372.1674806064</ele><time>2008-08-19T16:20:58Z</time></trkpt>
</trkseg></trk></gpx>